This is the latest recevied weather packets stored in our database for station/object IV6ZJU-13. If no packets are shown the sender has not sent any weather packets the latest 10 day(s).
| Time | Temp. | Humidity | Pressure | Rain* | Wind** | Luminosity | Snow |
|---|---|---|---|---|---|---|---|
| 1777497849 | 18.33° C | 91% | 1008.2 hPa | - | - | - | - |
| 1777496949 | 18.33° C | 89% | 1008.2 hPa | - | - | - | - |
| 1777496049 | 18.33° C | 89% | 1008.2 hPa | - | - | - | - |
| 1777495149 | 18.33° C | 90% | 1008.3 hPa | - | - | - | - |
| 1777494249 | 18.33° C | 91% | 1008 hPa | - | - | - | - |
| 1777493349 | 18.33° C | 90% | 1007.9 hPa | - | - | - | - |
| 1777492448 | 18.33° C | 89% | 1007.8 hPa | - | - | - | - |
| 1777491548 | 18.89° C | 84% | 1007.6 hPa | - | - | - | - |
| 1777490648 | 19.44° C | 82% | 1007.5 hPa | - | - | - | - |
| 1777489748 | 18.89° C | 81% | 1007.2 hPa | - | - | - | - |
| 1777488848 | 20° C | 75% | 1007 hPa | - | - | - | - |
| 1777487948 | 20° C | 75% | 1006.7 hPa | - | - | - | - |
| 1777487048 | 20° C | 74% | 1006.7 hPa | - | - | - | - |
| 1777486147 | 20° C | 69% | 1006.6 hPa | - | - | - | - |
| 1777485247 | 20.56° C | 68% | 1006.4 hPa | - | - | - | - |
| 1777484347 | 21.11° C | 66% | 1006.2 hPa | - | - | - | - |
| 1777483447 | 21.67° C | 64% | 1006.1 hPa | - | - | - | - |
| 1777482547 | 22.78° C | 61% | 1006.1 hPa | - | - | - | - |
| 1777481647 | 23.89° C | 59% | 1005.9 hPa | - | - | - | - |
| 1777480746 | 26.11° C | 52% | 1005.9 hPa | - | - | - | - |
| 1777479846 | 24.44° C | 57% | 1005.9 hPa | - | - | - | - |
| 1777478946 | 25° C | 55% | 1005.6 hPa | - | - | - | - |
| 1777478049 | 25° C | 55% | 1005.9 hPa | - | - | - | - |
| 1777477149 | 25.56° C | 53% | 1005.8 hPa | - | - | - | - |
| 1777476249 | 26.11° C | 53% | 1005.9 hPa | - | - | - | - |
* Rain since midnight (hover to see other rain measurements)
** Current wind speed in m/s (hover to see current wind gust speed)